KAAF/AAF METAR and TAF weather

Enter ICAO airport designator
Station Type Date Time Source
KAAF METAR 2021/08/05 04:53 UTC NOAA

KAAF 050453Z AUTO 04004KT 10SM SCT060 OVC100 24/24 A2996 RMK AO2 SLP144 T02390239 402890239


Station Type Date Time Source
KAAF Decoded METAR 2021/08/05 04:53 UTC NOAA

APALACHICOLA MUNICIPAL AIRPORT, FL, United States (KAAF) 29-44N 085-01W 5M
Aug 05, 2021 - 12:53 AM EDT / 2021.08.05 0453 UTC
Wind: from the NE (040 degrees) at 5 MPH (4 KT):0
Visibility: 10 mile(s):0
Sky conditions: overcast
Temperature: 75.0 F (23.9 C)
Dew Point: 75.0 F (23.9 C)
Relative Humidity: 100%
Pressure (altimeter): 29.96 in. Hg (1014 hPa)
ob: KAAF 050453Z AUTO 04004KT 10SM SCT060 OVC100 24/24 A2996 RMK AO2 SLP144 T02390239 402890239
cycle: 5

Station Type Date Time Source
KAAF TAF UTC NOAA

Error!

Example: see airport list